Terminal Aerodrome Forecast
Issued by NWS

Home | Current Version | Previous Version | Text Only | Print | Product List | Glossary On
Versions: 1 2 3 4 5 6 7 8 9 10 11 12 13 14 15
000
FTUS43 KMQT 011122
TAFIWD
TAF
KIWD 011122Z 0112/0212 26005KT P6SM SKC
     FM011300 28013G20KT P6SM SCT070
     FM020000 23005KT P6SM SCT100
     FM020700 22007KT P6SM VCSH BKN120
      AMD LTD TO CLD VIS AND WIND=

USA.gov is the U.S. government's official web portal to all federal, state and local government web resources and services.